MMLP/LAP METAR and TAF weather

Enter ICAO airport designator
Station Type Date Time Source
MMLP METAR 2021/09/23 23:47 UTC NOAA

MMLP 232347Z 25009KT 10SM FEW025 32/20 A2981 RMK SLP094 57003 973 8/100 DSNT TCU SSE ISOL CI


Station Type Date Time Source
MMLP Decoded METAR 2021/09/23 23:47 UTC NOAA

La Paz International Airport, Mexico (MMLP) 24-04N 110-22W
Sep 23, 2021 - 07:47 PM EDT / 2021.09.23 2347 UTC
Wind: from the WSW (250 degrees) at 10 MPH (9 KT):0
Visibility: 10 mile(s):0
Sky conditions: mostly clear
Weather: Towering cumulus clouds observed
Temperature: 89 F (32 C)
Dew Point: 68 F (20 C)
Relative Humidity: 49%
Pressure (altimeter): 29.81 in. Hg (1009 hPa)
Pressure tendency: 0.01 inches (0.3 hPa) lower than three hours ago
ob: MMLP 232347Z 25009KT 10SM FEW025 32/20 A2981 RMK SLP094 57003 973 8/100 DSNT TCU SSE ISOL CI
cycle: 0

Station Type Date Time Source
MMLP TAF 2021/09/23 18:28 UTC NOAA

TAF MMLP 231711Z 2318/2418 34012KT P6SM SKC
FM240600 20010KT P6SM SCT250

Example: see airport list